VOZ1535 YMML-YMHB
Flight info
| Callsign | VOZ1535 |
|---|---|
| Flight time | 1h 5m |
| Altitude | 39000 |
| Route | SUNTI H169 IRSOM V33 MORGO |
| Aircraft | B737/M-SDE2E3FGHIRWXY/LB1 |
Departure
| Time | 2026-05-07 12:58 |
|---|---|
| Airport | Melbourne Airport (YMML) |
Arrival
| Time | 2026-05-07 14:04 |
|---|---|
| Airport | Hobart International Airport (YMHB) |
| Time | Latitude | Longitude | Altitude | Speed | Heading |
|---|---|---|---|---|---|
| 2026-05-07 12:29 | -37.67130 | 144.84585 | 387 ft | 0 kts | 352° |
| 2026-05-07 12:49 | -37.67143 | 144.84587 | 387 ft | 4 kts | 352° |
| 2026-05-07 12:50 | -37.67170 | 144.84592 | 386 ft | 4 kts | 349° |
| 2026-05-07 12:50 | -37.67194 | 144.84601 | 386 ft | 4 kts | 317° |
| 2026-05-07 12:50 | -37.67201 | 144.84614 | 386 ft | 3 kts | 261° |
| 2026-05-07 12:50 | -37.67204 | 144.84588 | 385 ft | 4 kts | 261° |
| 2026-05-07 12:51 | -37.67207 | 144.84562 | 385 ft | 0 kts | 261° |
| 2026-05-07 12:53 | -37.67208 | 144.84558 | 385 ft | 2 kts | 261° |
| 2026-05-07 12:53 | -37.67211 | 144.84504 | 384 ft | 8 kts | 274° |
| 2026-05-07 12:53 | -37.67199 | 144.84426 | 383 ft | 10 kts | 274° |
| 2026-05-07 12:53 | -37.67204 | 144.84326 | 382 ft | 13 kts | 276° |
| 2026-05-07 12:54 | -37.67146 | 144.84258 | 382 ft | 12 kts | 351° |
| 2026-05-07 12:54 | -37.67064 | 144.84243 | 384 ft | 12 kts | 352° |
| 2026-05-07 12:54 | -37.66983 | 144.84229 | 385 ft | 12 kts | 352° |
| 2026-05-07 12:54 | -37.66905 | 144.84214 | 387 ft | 11 kts | 350° |
| 2026-05-07 12:55 | -37.66826 | 144.84197 | 390 ft | 12 kts | 354° |
| 2026-05-07 12:55 | -37.66739 | 144.84191 | 393 ft | 13 kts | 8° |
| 2026-05-07 12:55 | -37.66694 | 144.84274 | 395 ft | 12 kts | 82° |
| 2026-05-07 12:55 | -37.66680 | 144.84377 | 396 ft | 12 kts | 79° |
| 2026-05-07 12:56 | -37.66668 | 144.84480 | 397 ft | 12 kts | 80° |
| 2026-05-07 12:56 | -37.66655 | 144.84589 | 399 ft | 13 kts | 82° |
| 2026-05-07 12:56 | -37.66642 | 144.84709 | 401 ft | 14 kts | 81° |
| 2026-05-07 12:56 | -37.66590 | 144.84798 | 403 ft | 13 kts | 18° |
| 2026-05-07 12:57 | -37.66502 | 144.84783 | 406 ft | 13 kts | 345° |
| 2026-05-07 12:57 | -37.66414 | 144.84778 | 409 ft | 12 kts | 2° |
| 2026-05-07 12:57 | -37.66328 | 144.84786 | 411 ft | 14 kts | 1° |
| 2026-05-07 12:57 | -37.66229 | 144.84691 | 412 ft | 34 kts | 293° |
| 2026-05-07 12:58 | -37.66185 | 144.84082 | 409 ft | 104 kts | 274° |
| 2026-05-07 12:58 | -37.66125 | 144.82960 | 603 ft | 138 kts | 274° |
| 2026-05-07 12:58 | -37.66055 | 144.81821 | 1395 ft | 130 kts | 271° |
| 2026-05-07 12:58 | -37.65985 | 144.80695 | 2172 ft | 123 kts | 269° |
| 2026-05-07 12:59 | -37.65922 | 144.79518 | 2562 ft | 148 kts | 266° |
| 2026-05-07 12:59 | -37.65847 | 144.78111 | 2837 ft | 175 kts | 267° |
| 2026-05-07 12:59 | -37.65758 | 144.76456 | 3064 ft | 202 kts | 267° |
| 2026-05-07 12:59 | -37.65656 | 144.74574 | 3326 ft | 226 kts | 268° |
| 2026-05-07 13:00 | -37.65543 | 144.72562 | 4048 ft | 233 kts | 266° |
| 2026-05-07 13:00 | -37.65741 | 144.70600 | 4979 ft | 223 kts | 244° |
| 2026-05-07 13:00 | -37.66521 | 144.68911 | 5815 ft | 225 kts | 228° |
| 2026-05-07 13:00 | -37.67696 | 144.67631 | 6636 ft | 229 kts | 214° |
| 2026-05-07 13:01 | -37.69079 | 144.66528 | 7518 ft | 234 kts | 213° |
| 2026-05-07 13:01 | -37.70444 | 144.65476 | 8537 ft | 233 kts | 212° |
| 2026-05-07 13:01 | -37.71859 | 144.64415 | 9443 ft | 240 kts | 207° |
| 2026-05-07 13:01 | -37.73518 | 144.63963 | 10351 ft | 251 kts | 186° |
| 2026-05-07 13:02 | -37.75351 | 144.64260 | 10649 ft | 287 kts | 166° |
| 2026-05-07 13:02 | -37.77246 | 144.65446 | 10955 ft | 317 kts | 158° |
| 2026-05-07 13:02 | -37.79192 | 144.66881 | 11622 ft | 327 kts | 156° |
| 2026-05-07 13:02 | -37.81142 | 144.68372 | 12423 ft | 333 kts | 155° |
| 2026-05-07 13:03 | -37.83142 | 144.69911 | 13306 ft | 337 kts | 155° |
| 2026-05-07 13:03 | -37.85159 | 144.71459 | 14138 ft | 342 kts | 156° |
| 2026-05-07 13:03 | -37.87219 | 144.73029 | 14938 ft | 346 kts | 156° |
| 2026-05-07 13:03 | -37.89274 | 144.74591 | 15797 ft | 349 kts | 156° |
| 2026-05-07 13:04 | -37.91371 | 144.76180 | 16642 ft | 353 kts | 156° |
| 2026-05-07 13:04 | -37.93498 | 144.77787 | 17435 ft | 358 kts | 156° |
| 2026-05-07 13:04 | -37.95654 | 144.79415 | 18251 ft | 362 kts | 156° |
| 2026-05-07 13:04 | -37.97831 | 144.81058 | 18972 ft | 366 kts | 156° |
| 2026-05-07 13:05 | -38.00025 | 144.82717 | 19712 ft | 368 kts | 156° |
| 2026-05-07 13:05 | -38.02234 | 144.84388 | 20456 ft | 371 kts | 156° |
| 2026-05-07 13:05 | -38.04465 | 144.86075 | 21172 ft | 373 kts | 156° |
| 2026-05-07 13:05 | -38.06707 | 144.87772 | 21866 ft | 377 kts | 156° |
| 2026-05-07 13:06 | -38.08940 | 144.89464 | 22550 ft | 380 kts | 156° |
| 2026-05-07 13:06 | -38.11225 | 144.91195 | 23230 ft | 383 kts | 156° |
| 2026-05-07 13:06 | -38.13523 | 144.92937 | 23871 ft | 386 kts | 156° |
| 2026-05-07 13:06 | -38.15840 | 144.94695 | 24398 ft | 390 kts | 156° |
| 2026-05-07 13:07 | -38.18158 | 144.96455 | 24911 ft | 393 kts | 156° |
| 2026-05-07 13:07 | -38.20513 | 144.98245 | 25429 ft | 396 kts | 156° |
| 2026-05-07 13:07 | -38.22893 | 145.00056 | 25950 ft | 399 kts | 156° |
| 2026-05-07 13:07 | -38.25281 | 145.01876 | 26510 ft | 401 kts | 157° |
| 2026-05-07 13:08 | -38.27688 | 145.03712 | 27001 ft | 404 kts | 157° |
| 2026-05-07 13:08 | -38.30113 | 145.05560 | 27467 ft | 408 kts | 157° |
| 2026-05-07 13:08 | -38.32561 | 145.07426 | 27939 ft | 410 kts | 157° |
| 2026-05-07 13:08 | -38.35015 | 145.09300 | 28389 ft | 413 kts | 157° |
| 2026-05-07 13:09 | -38.37490 | 145.11193 | 28818 ft | 416 kts | 157° |
| 2026-05-07 13:09 | -38.39948 | 145.13073 | 29252 ft | 419 kts | 157° |
| 2026-05-07 13:09 | -38.42456 | 145.14994 | 29673 ft | 421 kts | 157° |
| 2026-05-07 13:09 | -38.42566 | 145.15079 | 29721 ft | 421 kts | 157° |
| 2026-05-07 13:10 | -38.44636 | 145.16669 | 30425 ft | 413 kts | 157° |
| 2026-05-07 13:10 | -38.44690 | 145.16711 | 30442 ft | 413 kts | 157° |
| 2026-05-07 13:10 | -38.45791 | 145.17558 | 30710 ft | 412 kts | 157° |
| 2026-05-07 13:10 | -38.47773 | 145.19079 | 30998 ft | 413 kts | 158° |
| 2026-05-07 13:11 | -38.50246 | 145.20965 | 31255 ft | 416 kts | 159° |
| 2026-05-07 13:11 | -38.52847 | 145.22521 | 31490 ft | 410 kts | 167° |
| 2026-05-07 13:11 | -38.55543 | 145.23737 | 31802 ft | 410 kts | 169° |
| 2026-05-07 13:11 | -38.58254 | 145.24874 | 32128 ft | 411 kts | 169° |
| 2026-05-07 13:12 | -38.60985 | 145.26003 | 32459 ft | 412 kts | 169° |
| 2026-05-07 13:12 | -38.63712 | 145.27149 | 32884 ft | 412 kts | 169° |
| 2026-05-07 13:12 | -38.66436 | 145.28313 | 33251 ft | 413 kts | 169° |
| 2026-05-07 13:12 | -38.69164 | 145.29490 | 33645 ft | 413 kts | 169° |
| 2026-05-07 13:13 | -38.71849 | 145.30661 | 34019 ft | 413 kts | 169° |
| 2026-05-07 13:13 | -38.74573 | 145.31855 | 34247 ft | 415 kts | 169° |
| 2026-05-07 13:13 | -38.77312 | 145.33061 | 34470 ft | 417 kts | 169° |
| 2026-05-07 13:13 | -38.80065 | 145.34278 | 34758 ft | 417 kts | 169° |
| 2026-05-07 13:14 | -38.82813 | 145.35494 | 35040 ft | 417 kts | 168° |
| 2026-05-07 13:14 | -38.85567 | 145.36715 | 35289 ft | 418 kts | 168° |
| 2026-05-07 13:14 | -38.88278 | 145.37917 | 35517 ft | 419 kts | 168° |
| 2026-05-07 13:14 | -38.91025 | 145.39137 | 36011 ft | 413 kts | 168° |
| 2026-05-07 13:15 | -38.93731 | 145.40343 | 36386 ft | 411 kts | 168° |
| 2026-05-07 13:15 | -38.96440 | 145.41546 | 36501 ft | 414 kts | 168° |
| 2026-05-07 13:15 | -38.99183 | 145.42761 | 36633 ft | 417 kts | 168° |
| 2026-05-07 13:15 | -39.01928 | 145.43981 | 36893 ft | 417 kts | 168° |
| 2026-05-07 13:16 | -39.04669 | 145.45202 | 37158 ft | 417 kts | 168° |
| 2026-05-07 13:16 | -39.07413 | 145.46426 | 37369 ft | 418 kts | 168° |
| 2026-05-07 13:16 | -39.10169 | 145.47655 | 37556 ft | 419 kts | 168° |
| 2026-05-07 13:16 | -39.12921 | 145.48883 | 37843 ft | 418 kts | 168° |
| 2026-05-07 13:17 | -39.15665 | 145.50111 | 38168 ft | 416 kts | 168° |
| 2026-05-07 13:17 | -39.18370 | 145.51322 | 38353 ft | 417 kts | 168° |
| 2026-05-07 13:17 | -39.21122 | 145.52552 | 38553 ft | 419 kts | 168° |
| 2026-05-07 13:17 | -39.23878 | 145.53785 | 38736 ft | 419 kts | 168° |
| 2026-05-07 13:18 | -39.26637 | 145.55022 | 38911 ft | 419 kts | 168° |
| 2026-05-07 13:18 | -39.29400 | 145.56262 | 39031 ft | 421 kts | 168° |
| 2026-05-07 13:18 | -39.34966 | 145.58760 | 39052 ft | 424 kts | 168° |
| 2026-05-07 13:19 | -39.40518 | 145.61263 | 39048 ft | 421 kts | 168° |
| 2026-05-07 13:19 | -39.46001 | 145.63737 | 39051 ft | 418 kts | 168° |
| 2026-05-07 13:20 | -39.51469 | 145.66206 | 39051 ft | 415 kts | 168° |
| 2026-05-07 13:20 | -39.56937 | 145.68678 | 39047 ft | 415 kts | 168° |
| 2026-05-07 13:21 | -39.62400 | 145.71150 | 39045 ft | 416 kts | 168° |
| 2026-05-07 13:21 | -39.67847 | 145.73620 | 39037 ft | 419 kts | 168° |
| 2026-05-07 13:22 | -39.73365 | 145.76128 | 39024 ft | 421 kts | 168° |
| 2026-05-07 13:22 | -39.78922 | 145.78658 | 39016 ft | 423 kts | 168° |
| 2026-05-07 13:23 | -39.84492 | 145.81200 | 39013 ft | 425 kts | 168° |
| 2026-05-07 13:23 | -39.90053 | 145.83741 | 39013 ft | 427 kts | 168° |
| 2026-05-07 13:24 | -39.95667 | 145.86312 | 38999 ft | 427 kts | 168° |
| 2026-05-07 13:24 | -40.01283 | 145.88889 | 38988 ft | 427 kts | 167° |
| 2026-05-07 13:25 | -40.06878 | 145.91480 | 39012 ft | 426 kts | 167° |
| 2026-05-07 13:25 | -40.12465 | 145.94075 | 38993 ft | 425 kts | 167° |
| 2026-05-07 13:26 | -40.17997 | 145.96648 | 38985 ft | 423 kts | 167° |
| 2026-05-07 13:26 | -40.23541 | 145.99231 | 38981 ft | 422 kts | 167° |
| 2026-05-07 13:27 | -40.29067 | 146.01809 | 38974 ft | 420 kts | 167° |
| 2026-05-07 13:27 | -40.34532 | 146.04362 | 38967 ft | 419 kts | 167° |
| 2026-05-07 13:28 | -40.40017 | 146.06930 | 38954 ft | 418 kts | 167° |
| 2026-05-07 13:28 | -40.45499 | 146.09500 | 38944 ft | 418 kts | 167° |
| 2026-05-07 13:29 | -40.50968 | 146.12070 | 38958 ft | 418 kts | 167° |
| 2026-05-07 13:29 | -40.56413 | 146.14631 | 38955 ft | 418 kts | 167° |
| 2026-05-07 13:30 | -40.61908 | 146.17223 | 38944 ft | 419 kts | 167° |
| 2026-05-07 13:30 | -40.67407 | 146.19819 | 38934 ft | 419 kts | 167° |
| 2026-05-07 13:31 | -40.72871 | 146.22402 | 38937 ft | 420 kts | 167° |
| 2026-05-07 13:31 | -40.78376 | 146.25004 | 38929 ft | 420 kts | 167° |
| 2026-05-07 13:32 | -40.83884 | 146.27612 | 38914 ft | 420 kts | 167° |
| 2026-05-07 13:32 | -40.89370 | 146.30215 | 38915 ft | 419 kts | 167° |
| 2026-05-07 13:33 | -40.94833 | 146.32812 | 38918 ft | 420 kts | 166° |
| 2026-05-07 13:33 | -41.00331 | 146.35431 | 38901 ft | 420 kts | 166° |
| 2026-05-07 13:34 | -41.08569 | 146.39363 | 38899 ft | 419 kts | 166° |
| 2026-05-07 13:35 | -41.14060 | 146.41990 | 38916 ft | 419 kts | 166° |
| 2026-05-07 13:35 | -41.18610 | 146.44292 | 38884 ft | 423 kts | 162° |
| 2026-05-07 13:36 | -41.24822 | 146.48199 | 38887 ft | 425 kts | 160° |
| 2026-05-07 13:36 | -41.29269 | 146.51074 | 38414 ft | 431 kts | 160° |
| 2026-05-07 13:36 | -41.32860 | 146.53375 | 37584 ft | 426 kts | 160° |
| 2026-05-07 13:37 | -41.34626 | 146.54501 | 37217 ft | 423 kts | 161° |
| 2026-05-07 13:37 | -41.37279 | 146.56186 | 36521 ft | 422 kts | 161° |
| 2026-05-07 13:37 | -41.39924 | 146.57860 | 35853 ft | 420 kts | 161° |
| 2026-05-07 13:37 | -41.42557 | 146.59527 | 35112 ft | 418 kts | 160° |
| 2026-05-07 13:38 | -41.45184 | 146.61191 | 34375 ft | 416 kts | 160° |
| 2026-05-07 13:38 | -41.47792 | 146.62845 | 33706 ft | 412 kts | 161° |
| 2026-05-07 13:38 | -41.50323 | 146.64455 | 33208 ft | 403 kts | 161° |
| 2026-05-07 13:38 | -41.52851 | 146.66063 | 32422 ft | 401 kts | 161° |
| 2026-05-07 13:39 | -41.55347 | 146.67652 | 31900 ft | 394 kts | 161° |
| 2026-05-07 13:39 | -41.57806 | 146.69216 | 31325 ft | 389 kts | 161° |
| 2026-05-07 13:39 | -41.60228 | 146.70760 | 30811 ft | 382 kts | 161° |
| 2026-05-07 13:39 | -41.62617 | 146.72282 | 30296 ft | 377 kts | 162° |
| 2026-05-07 13:40 | -41.64960 | 146.73779 | 29768 ft | 371 kts | 162° |
| 2026-05-07 13:40 | -41.67253 | 146.75255 | 29469 ft | 359 kts | 162° |
| 2026-05-07 13:40 | -41.69474 | 146.76696 | 29174 ft | 351 kts | 162° |
| 2026-05-07 13:40 | -41.71679 | 146.78121 | 28838 ft | 356 kts | 162° |
| 2026-05-07 13:41 | -41.73934 | 146.79566 | 28300 ft | 358 kts | 162° |
| 2026-05-07 13:41 | -41.76138 | 146.80996 | 27817 ft | 354 kts | 162° |
| 2026-05-07 13:41 | -41.78352 | 146.82434 | 27217 ft | 352 kts | 162° |
| 2026-05-07 13:41 | -41.80551 | 146.83862 | 26683 ft | 351 kts | 162° |
| 2026-05-07 13:42 | -41.82746 | 146.85288 | 26132 ft | 350 kts | 162° |
| 2026-05-07 13:42 | -41.84941 | 146.86712 | 25604 ft | 349 kts | 162° |
| 2026-05-07 13:42 | -41.87112 | 146.88125 | 25066 ft | 345 kts | 162° |
| 2026-05-07 13:42 | -41.89261 | 146.89529 | 24536 ft | 342 kts | 162° |
| 2026-05-07 13:43 | -41.91389 | 146.90915 | 24035 ft | 338 kts | 162° |
| 2026-05-07 13:43 | -41.93491 | 146.92285 | 23526 ft | 333 kts | 162° |
| 2026-05-07 13:43 | -41.95564 | 146.93638 | 22947 ft | 330 kts | 163° |
| 2026-05-07 13:43 | -41.97614 | 146.94976 | 22429 ft | 326 kts | 162° |
| 2026-05-07 13:44 | -41.99662 | 146.96311 | 21891 ft | 327 kts | 162° |
| 2026-05-07 13:44 | -42.01686 | 146.97630 | 21369 ft | 328 kts | 162° |
| 2026-05-07 13:44 | -42.03747 | 146.98975 | 20856 ft | 328 kts | 162° |
| 2026-05-07 13:44 | -42.05794 | 147.00316 | 20338 ft | 325 kts | 162° |
| 2026-05-07 13:45 | -42.07824 | 147.01647 | 19810 ft | 322 kts | 162° |
| 2026-05-07 13:45 | -42.09837 | 147.02968 | 19313 ft | 319 kts | 162° |
| 2026-05-07 13:45 | -42.11799 | 147.04254 | 18823 ft | 316 kts | 162° |
| 2026-05-07 13:45 | -42.13770 | 147.05548 | 18330 ft | 314 kts | 162° |
| 2026-05-07 13:46 | -42.15734 | 147.06837 | 17776 ft | 313 kts | 162° |
| 2026-05-07 13:46 | -42.17640 | 147.08275 | 17251 ft | 320 kts | 152° |
| 2026-05-07 13:46 | -42.19352 | 147.10279 | 16676 ft | 328 kts | 147° |
| 2026-05-07 13:46 | -42.21019 | 147.12393 | 16136 ft | 329 kts | 146° |
| 2026-05-07 13:47 | -42.22673 | 147.14505 | 15602 ft | 326 kts | 146° |
| 2026-05-07 13:47 | -42.24318 | 147.16589 | 15119 ft | 323 kts | 146° |
| 2026-05-07 13:47 | -42.25957 | 147.18643 | 14622 ft | 320 kts | 146° |
| 2026-05-07 13:47 | -42.27591 | 147.20681 | 14133 ft | 319 kts | 146° |
| 2026-05-07 13:48 | -42.29220 | 147.22709 | 13626 ft | 318 kts | 146° |
| 2026-05-07 13:48 | -42.30846 | 147.24730 | 13066 ft | 317 kts | 146° |
| 2026-05-07 13:48 | -42.32525 | 147.26591 | 12662 ft | 304 kts | 155° |
| 2026-05-07 13:48 | -42.34330 | 147.28019 | 12436 ft | 298 kts | 160° |
| 2026-05-07 13:49 | -42.36170 | 147.29335 | 12171 ft | 301 kts | 160° |
| 2026-05-07 13:49 | -42.38036 | 147.30662 | 11914 ft | 305 kts | 160° |
| 2026-05-07 13:49 | -42.39889 | 147.32001 | 11656 ft | 307 kts | 160° |
| 2026-05-07 13:49 | -42.41771 | 147.33384 | 11391 ft | 307 kts | 159° |
| 2026-05-07 13:50 | -42.43642 | 147.34776 | 11123 ft | 307 kts | 159° |
| 2026-05-07 13:50 | -42.45513 | 147.36175 | 10872 ft | 306 kts | 159° |
| 2026-05-07 13:50 | -42.47373 | 147.37569 | 10611 ft | 305 kts | 159° |
| 2026-05-07 13:50 | -42.49221 | 147.38961 | 10342 ft | 300 kts | 159° |
| 2026-05-07 13:51 | -42.51011 | 147.40306 | 10081 ft | 290 kts | 160° |
| 2026-05-07 13:51 | -42.52751 | 147.41610 | 9828 ft | 281 kts | 160° |
| 2026-05-07 13:51 | -42.54421 | 147.42875 | 9780 ft | 267 kts | 160° |
| 2026-05-07 13:51 | -42.56011 | 147.44087 | 9566 ft | 257 kts | 160° |
| 2026-05-07 13:52 | -42.57571 | 147.45261 | 9372 ft | 257 kts | 161° |
| 2026-05-07 13:52 | -42.59149 | 147.46446 | 9163 ft | 263 kts | 158° |
| 2026-05-07 13:52 | -42.60636 | 147.47928 | 8929 ft | 273 kts | 149° |
| 2026-05-07 13:52 | -42.62080 | 147.49610 | 8680 ft | 273 kts | 148° |
| 2026-05-07 13:53 | -42.63513 | 147.51307 | 8424 ft | 273 kts | 148° |
| 2026-05-07 13:53 | -42.64945 | 147.52990 | 8185 ft | 271 kts | 149° |
| 2026-05-07 13:53 | -42.66381 | 147.54649 | 7974 ft | 268 kts | 149° |
| 2026-05-07 13:53 | -42.67804 | 147.56274 | 7763 ft | 266 kts | 150° |
| 2026-05-07 13:54 | -42.69228 | 147.57891 | 7537 ft | 267 kts | 150° |
| 2026-05-07 13:54 | -42.70633 | 147.59494 | 7304 ft | 268 kts | 149° |
| 2026-05-07 13:54 | -42.72064 | 147.61128 | 7076 ft | 268 kts | 149° |
| 2026-05-07 13:54 | -42.73491 | 147.62750 | 6847 ft | 268 kts | 150° |
| 2026-05-07 13:55 | -42.74909 | 147.64375 | 6613 ft | 264 kts | 149° |
| 2026-05-07 13:55 | -42.76305 | 147.65976 | 6381 ft | 260 kts | 150° |
| 2026-05-07 13:55 | -42.77683 | 147.67549 | 6157 ft | 257 kts | 150° |
| 2026-05-07 13:55 | -42.79051 | 147.69109 | 5956 ft | 257 kts | 150° |
| 2026-05-07 13:56 | -42.80431 | 147.70689 | 5719 ft | 259 kts | 149° |
| 2026-05-07 13:56 | -42.81795 | 147.72256 | 5494 ft | 254 kts | 150° |
| 2026-05-07 13:56 | -42.83138 | 147.73794 | 5266 ft | 250 kts | 150° |
| 2026-05-07 13:56 | -42.84449 | 147.75307 | 5062 ft | 245 kts | 151° |
| 2026-05-07 13:57 | -42.85853 | 147.76338 | 4847 ft | 221 kts | 179° |
| 2026-05-07 13:57 | -42.87295 | 147.76302 | 4708 ft | 199 kts | 199° |
| 2026-05-07 13:57 | -42.88549 | 147.75673 | 4525 ft | 187 kts | 211° |
| 2026-05-07 13:57 | -42.89699 | 147.74894 | 4364 ft | 181 kts | 212° |
| 2026-05-07 13:58 | -42.90815 | 147.74137 | 4202 ft | 175 kts | 212° |
| 2026-05-07 13:58 | -42.91852 | 147.73344 | 4039 ft | 165 kts | 226° |
| 2026-05-07 13:58 | -42.92500 | 147.72113 | 3854 ft | 158 kts | 243° |
| 2026-05-07 13:58 | -42.92766 | 147.70694 | 3629 ft | 155 kts | 263° |
| 2026-05-07 13:59 | -42.92766 | 147.69265 | 3407 ft | 149 kts | 263° |
| 2026-05-07 13:59 | -42.92776 | 147.67881 | 3172 ft | 143 kts | 263° |
| 2026-05-07 13:59 | -42.92783 | 147.66550 | 2932 ft | 138 kts | 263° |
| 2026-05-07 13:59 | -42.92788 | 147.65272 | 2705 ft | 132 kts | 264° |
| 2026-05-07 14:00 | -42.92778 | 147.64034 | 2485 ft | 133 kts | 275° |
| 2026-05-07 14:00 | -42.92185 | 147.62992 | 2344 ft | 144 kts | 304° |
| 2026-05-07 14:00 | -42.91505 | 147.62065 | 2134 ft | 129 kts | 301° |
| 2026-05-07 14:00 | -42.90905 | 147.61224 | 1885 ft | 119 kts | 302° |
| 2026-05-07 14:01 | -42.90323 | 147.60409 | 1683 ft | 120 kts | 303° |
| 2026-05-07 14:01 | -42.89740 | 147.59602 | 1494 ft | 119 kts | 304° |
| 2026-05-07 14:01 | -42.89157 | 147.58781 | 1328 ft | 122 kts | 305° |
| 2026-05-07 14:01 | -42.88568 | 147.57961 | 1159 ft | 119 kts | 307° |
| 2026-05-07 14:02 | -42.87995 | 147.57168 | 973 ft | 119 kts | 308° |
| 2026-05-07 14:02 | -42.87419 | 147.56378 | 804 ft | 116 kts | 313° |
| 2026-05-07 14:02 | -42.86866 | 147.55551 | 716 ft | 116 kts | 311° |
| 2026-05-07 14:02 | -42.86273 | 147.54712 | 561 ft | 126 kts | 317° |
| 2026-05-07 14:03 | -42.85634 | 147.53915 | 409 ft | 123 kts | 313° |
| 2026-05-07 14:03 | -42.85034 | 147.53057 | 239 ft | 125 kts | 321° |
| 2026-05-07 14:03 | -42.84423 | 147.52266 | 38 ft | 116 kts | 315° |
| 2026-05-07 14:03 | -42.83911 | 147.51572 | 21 ft | 87 kts | 316° |
| 2026-05-07 14:04 | -42.83764 | 147.51344 | 21 ft | 10 kts | 253° |
| 2026-05-07 14:04 | -42.83816 | 147.51262 | 21 ft | 13 kts | 228° |
| 2026-05-07 14:04 | -42.83857 | 147.51145 | 21 ft | 16 kts | 293° |
| 2026-05-07 14:04 | -42.83780 | 147.51031 | 22 ft | 16 kts | 315° |
| 2026-05-07 14:05 | -42.83701 | 147.50923 | 23 ft | 16 kts | 315° |
| 2026-05-07 14:05 | -42.83697 | 147.50800 | 21 ft | 13 kts | 251° |
| 2026-05-07 14:05 | -42.83664 | 147.50705 | 21 ft | 11 kts | 314° |
| 2026-05-07 14:05 | -42.83671 | 147.50641 | 21 ft | 5 kts | 228° |
| 2026-05-07 14:06 | -42.83683 | 147.50624 | 21 ft | 1 kts | 225° |
| 2026-05-07 14:06 | -42.83686 | 147.50620 | 21 ft | 0 kts | 225° |